CFG2DF EGKK-EDDF
Flight info
| Callsign | CFG2DF |
|---|---|
| Flight time | 1h 3m |
| Altitude | 33000 |
| Route | DVR UL9 KONAN UL607 KOK DCT REMBA UL607 SPI T180 NIVNU/N0408F230 T847 IMCOM IMCOM1B |
| Aircraft | A320/M-SDE3FGHIRWY/LB1 |
Departure
| Time | 2026-05-04 13:19 |
|---|---|
| Airport | London Gatwick Airport (EGKK) |
Arrival
| Time | 2026-05-04 14:23 |
|---|---|
| Airport | Frankfurt Main Airport (EDDF) |
| Time | Latitude | Longitude | Altitude | Speed | Heading |
|---|---|---|---|---|---|
| 2026-05-04 12:26 | 51.16152 | -0.18049 | 205 ft | 0 kts | 77° |
| 2026-05-04 13:00 | 51.16149 | -0.18069 | 214 ft | 3 kts | 78° |
| 2026-05-04 13:01 | 51.16145 | -0.18101 | 209 ft | 3 kts | 78° |
| 2026-05-04 13:01 | 51.16141 | -0.18133 | 210 ft | 3 kts | 77° |
| 2026-05-04 13:01 | 51.16136 | -0.18163 | 218 ft | 2 kts | 87° |
| 2026-05-04 13:01 | 51.16136 | -0.18178 | 218 ft | 1 kts | 139° |
| 2026-05-04 13:02 | 51.16143 | -0.18186 | 216 ft | 1 kts | 161° |
| 2026-05-04 13:02 | 51.16152 | -0.18190 | 212 ft | 1 kts | 165° |
| 2026-05-04 13:02 | 51.16160 | -0.18193 | 215 ft | 1 kts | 166° |
| 2026-05-04 13:02 | 51.16162 | -0.18194 | 214 ft | 0 kts | 166° |
| 2026-05-04 13:05 | 51.16150 | -0.18190 | 213 ft | 4 kts | 167° |
| 2026-05-04 13:05 | 51.16115 | -0.18178 | 208 ft | 7 kts | 168° |
| 2026-05-04 13:05 | 51.16055 | -0.18157 | 210 ft | 11 kts | 167° |
| 2026-05-04 13:05 | 51.15964 | -0.18126 | 205 ft | 15 kts | 168° |
| 2026-05-04 13:06 | 51.15865 | -0.18092 | 215 ft | 12 kts | 167° |
| 2026-05-04 13:06 | 51.15774 | -0.18060 | 209 ft | 9 kts | 167° |
| 2026-05-04 13:06 | 51.15745 | -0.18049 | 205 ft | 1 kts | 167° |
| 2026-05-04 13:06 | 51.15743 | -0.18049 | 205 ft | 0 kts | 167° |
| 2026-05-04 13:07 | 51.15740 | -0.18048 | 205 ft | 3 kts | 167° |
| 2026-05-04 13:07 | 51.15689 | -0.18063 | 213 ft | 12 kts | 232° |
| 2026-05-04 13:08 | 51.15664 | -0.18229 | 205 ft | 17 kts | 257° |
| 2026-05-04 13:08 | 51.15626 | -0.18368 | 210 ft | 7 kts | 191° |
| 2026-05-04 13:08 | 51.15591 | -0.18351 | 205 ft | 5 kts | 168° |
| 2026-05-04 13:08 | 51.15562 | -0.18342 | 207 ft | 4 kts | 168° |
| 2026-05-04 13:09 | 51.15505 | -0.18322 | 205 ft | 11 kts | 167° |
| 2026-05-04 13:09 | 51.15433 | -0.18296 | 214 ft | 10 kts | 167° |
| 2026-05-04 13:09 | 51.15368 | -0.18273 | 211 ft | 9 kts | 167° |
| 2026-05-04 13:09 | 51.15312 | -0.18254 | 208 ft | 8 kts | 167° |
| 2026-05-04 13:10 | 51.15268 | -0.18238 | 205 ft | 4 kts | 167° |
| 2026-05-04 13:10 | 51.15262 | -0.18236 | 205 ft | 0 kts | 167° |
| 2026-05-04 13:10 | 51.15260 | -0.18235 | 205 ft | 1 kts | 167° |
| 2026-05-04 13:11 | 51.15249 | -0.18231 | 205 ft | 2 kts | 167° |
| 2026-05-04 13:11 | 51.15229 | -0.18224 | 211 ft | 6 kts | 167° |
| 2026-05-04 13:11 | 51.15188 | -0.18294 | 212 ft | 12 kts | 257° |
| 2026-05-04 13:11 | 51.15174 | -0.18418 | 205 ft | 11 kts | 259° |
| 2026-05-04 13:12 | 51.15158 | -0.18544 | 214 ft | 15 kts | 258° |
| 2026-05-04 13:12 | 51.15130 | -0.18752 | 205 ft | 21 kts | 258° |
| 2026-05-04 13:12 | 51.15098 | -0.18975 | 211 ft | 20 kts | 258° |
| 2026-05-04 13:12 | 51.15069 | -0.19190 | 211 ft | 20 kts | 258° |
| 2026-05-04 13:13 | 51.15039 | -0.19404 | 210 ft | 20 kts | 257° |
| 2026-05-04 13:13 | 51.15010 | -0.19614 | 211 ft | 19 kts | 257° |
| 2026-05-04 13:13 | 51.14982 | -0.19822 | 211 ft | 19 kts | 258° |
| 2026-05-04 13:13 | 51.14956 | -0.20024 | 215 ft | 18 kts | 258° |
| 2026-05-04 13:14 | 51.14929 | -0.20217 | 205 ft | 17 kts | 256° |
| 2026-05-04 13:14 | 51.14902 | -0.20391 | 205 ft | 16 kts | 256° |
| 2026-05-04 13:14 | 51.14880 | -0.20551 | 214 ft | 14 kts | 258° |
| 2026-05-04 13:14 | 51.14861 | -0.20694 | 205 ft | 12 kts | 258° |
| 2026-05-04 13:15 | 51.14843 | -0.20824 | 205 ft | 11 kts | 257° |
| 2026-05-04 13:15 | 51.14826 | -0.20941 | 216 ft | 13 kts | 257° |
| 2026-05-04 13:15 | 51.14805 | -0.21089 | 207 ft | 13 kts | 257° |
| 2026-05-04 13:15 | 51.14781 | -0.21222 | 208 ft | 12 kts | 253° |
| 2026-05-04 13:16 | 51.14761 | -0.21344 | 205 ft | 11 kts | 258° |
| 2026-05-04 13:16 | 51.14716 | -0.21407 | 210 ft | 9 kts | 176° |
| 2026-05-04 13:16 | 51.14667 | -0.21367 | 214 ft | 7 kts | 131° |
| 2026-05-04 13:16 | 51.14631 | -0.21334 | 207 ft | 6 kts | 167° |
| 2026-05-04 13:17 | 51.14612 | -0.21327 | 205 ft | 0 kts | 167° |
| 2026-05-04 13:17 | 51.14582 | -0.21313 | 211 ft | 10 kts | 159° |
| 2026-05-04 13:18 | 51.14518 | -0.21217 | 211 ft | 13 kts | 112° |
| 2026-05-04 13:18 | 51.14520 | -0.21163 | 211 ft | 0 kts | 77° |
| 2026-05-04 13:19 | 51.14531 | -0.21091 | 210 ft | 31 kts | 77° |
| 2026-05-04 13:19 | 51.14591 | -0.20669 | 212 ft | 83 kts | 77° |
| 2026-05-04 13:19 | 51.14830 | -0.18903 | 242 ft | 155 kts | 76° |
| 2026-05-04 13:19 | 51.15073 | -0.17214 | 846 ft | 160 kts | 75° |
| 2026-05-04 13:20 | 51.15331 | -0.15482 | 1620 ft | 161 kts | 77° |
| 2026-05-04 13:20 | 51.15569 | -0.13717 | 2246 ft | 170 kts | 77° |
| 2026-05-04 13:20 | 51.15831 | -0.11747 | 2601 ft | 193 kts | 77° |
| 2026-05-04 13:20 | 51.16136 | -0.09484 | 2974 ft | 219 kts | 77° |
| 2026-05-04 13:21 | 51.16479 | -0.06975 | 3465 ft | 244 kts | 77° |
| 2026-05-04 13:21 | 51.16838 | -0.04222 | 4129 ft | 260 kts | 82° |
| 2026-05-04 13:21 | 51.16854 | -0.01298 | 5024 ft | 267 kts | 92° |
| 2026-05-04 13:21 | 51.16792 | 0.01685 | 5935 ft | 273 kts | 92° |
| 2026-05-04 13:22 | 51.16734 | 0.04730 | 6804 ft | 278 kts | 92° |
| 2026-05-04 13:22 | 51.16676 | 0.07835 | 7612 ft | 284 kts | 92° |
| 2026-05-04 13:22 | 51.16617 | 0.11004 | 7917 ft | 286 kts | 92° |
| 2026-05-04 13:22 | 51.16561 | 0.14156 | 8008 ft | 286 kts | 92° |
| 2026-05-04 13:23 | 51.16519 | 0.17330 | 8001 ft | 285 kts | 91° |
| 2026-05-04 13:23 | 51.16515 | 0.19417 | 8002 ft | 285 kts | 90° |
| 2026-05-04 13:23 | 51.16530 | 0.22581 | 8008 ft | 286 kts | 90° |
| 2026-05-04 13:23 | 51.16549 | 0.25758 | 8154 ft | 292 kts | 90° |
| 2026-05-04 13:24 | 51.16565 | 0.28988 | 9154 ft | 291 kts | 90° |
| 2026-05-04 13:24 | 51.16577 | 0.32226 | 10085 ft | 293 kts | 90° |
| 2026-05-04 13:24 | 51.16585 | 0.35541 | 10913 ft | 297 kts | 91° |
| 2026-05-04 13:25 | 51.16590 | 0.42192 | 12535 ft | 304 kts | 91° |
| 2026-05-04 13:25 | 51.16594 | 0.45589 | 13344 ft | 308 kts | 91° |
| 2026-05-04 13:25 | 51.16598 | 0.49026 | 14104 ft | 312 kts | 91° |
| 2026-05-04 13:25 | 51.16599 | 0.52580 | 14376 ft | 333 kts | 91° |
| 2026-05-04 13:26 | 51.16595 | 0.56393 | 14595 ft | 352 kts | 91° |
| 2026-05-04 13:26 | 51.16589 | 0.60335 | 15156 ft | 359 kts | 91° |
| 2026-05-04 13:26 | 51.16583 | 0.64339 | 15849 ft | 363 kts | 91° |
| 2026-05-04 13:26 | 51.16576 | 0.68382 | 16560 ft | 366 kts | 91° |
| 2026-05-04 13:27 | 51.16566 | 0.72455 | 17248 ft | 369 kts | 91° |
| 2026-05-04 13:27 | 51.16557 | 0.76575 | 17920 ft | 373 kts | 91° |
| 2026-05-04 13:27 | 51.16547 | 0.80712 | 18577 ft | 376 kts | 92° |
| 2026-05-04 13:27 | 51.16537 | 0.84905 | 19140 ft | 380 kts | 92° |
| 2026-05-04 13:28 | 51.16523 | 0.89130 | 19699 ft | 384 kts | 92° |
| 2026-05-04 13:28 | 51.16508 | 0.93407 | 20254 ft | 388 kts | 92° |
| 2026-05-04 13:28 | 51.16492 | 0.97729 | 20826 ft | 392 kts | 92° |
| 2026-05-04 13:28 | 51.16473 | 1.02091 | 21369 ft | 396 kts | 92° |
| 2026-05-04 13:29 | 51.16450 | 1.06503 | 21918 ft | 400 kts | 92° |
| 2026-05-04 13:29 | 51.16424 | 1.10953 | 22470 ft | 404 kts | 92° |
| 2026-05-04 13:29 | 51.16396 | 1.15450 | 23006 ft | 408 kts | 92° |
| 2026-05-04 13:29 | 51.16368 | 1.19989 | 23531 ft | 412 kts | 92° |
| 2026-05-04 13:30 | 51.16340 | 1.24571 | 23971 ft | 415 kts | 92° |
| 2026-05-04 13:30 | 51.16311 | 1.29181 | 24422 ft | 418 kts | 93° |
| 2026-05-04 13:30 | 51.16278 | 1.33817 | 24861 ft | 420 kts | 93° |
| 2026-05-04 13:30 | 51.16211 | 1.38485 | 25296 ft | 422 kts | 95° |
| 2026-05-04 13:31 | 51.16050 | 1.43153 | 25717 ft | 424 kts | 96° |
| 2026-05-04 13:31 | 51.15820 | 1.47847 | 26139 ft | 425 kts | 97° |
| 2026-05-04 13:31 | 51.15555 | 1.52555 | 26551 ft | 427 kts | 98° |
| 2026-05-04 13:31 | 51.15281 | 1.57280 | 26955 ft | 429 kts | 98° |
| 2026-05-04 13:32 | 51.15015 | 1.62035 | 27358 ft | 432 kts | 98° |
| 2026-05-04 13:32 | 51.14757 | 1.66867 | 27757 ft | 434 kts | 98° |
| 2026-05-04 13:32 | 51.14511 | 1.71665 | 28141 ft | 436 kts | 98° |
| 2026-05-04 13:32 | 51.14270 | 1.76488 | 28521 ft | 438 kts | 98° |
| 2026-05-04 13:33 | 51.14030 | 1.81339 | 28888 ft | 440 kts | 98° |
| 2026-05-04 13:33 | 51.13788 | 1.86211 | 29248 ft | 442 kts | 98° |
| 2026-05-04 13:33 | 51.13541 | 1.91094 | 29587 ft | 444 kts | 98° |
| 2026-05-04 13:33 | 51.13284 | 1.96013 | 29926 ft | 446 kts | 98° |
| 2026-05-04 13:34 | 51.13026 | 2.00939 | 30226 ft | 448 kts | 98° |
| 2026-05-04 13:34 | 51.12766 | 2.05894 | 30484 ft | 450 kts | 98° |
| 2026-05-04 13:34 | 51.12504 | 2.10860 | 30735 ft | 452 kts | 98° |
| 2026-05-04 13:34 | 51.12237 | 2.15860 | 30969 ft | 454 kts | 99° |
| 2026-05-04 13:35 | 51.11967 | 2.20885 | 31202 ft | 456 kts | 99° |
| 2026-05-04 13:35 | 51.11413 | 2.30955 | 31722 ft | 458 kts | 99° |
| 2026-05-04 13:35 | 51.11131 | 2.36001 | 32039 ft | 457 kts | 99° |
| 2026-05-04 13:36 | 51.10850 | 2.41035 | 32351 ft | 457 kts | 99° |
| 2026-05-04 13:36 | 51.10565 | 2.46067 | 32661 ft | 457 kts | 100° |
| 2026-05-04 13:36 | 51.10278 | 2.51106 | 32970 ft | 457 kts | 100° |
| 2026-05-04 13:36 | 51.09988 | 2.56137 | 33281 ft | 457 kts | 100° |
| 2026-05-04 13:37 | 51.09700 | 2.61163 | 33592 ft | 456 kts | 100° |
| 2026-05-04 13:37 | 51.09255 | 2.66131 | 33903 ft | 451 kts | 108° |
| 2026-05-04 13:37 | 51.08436 | 2.70931 | 34179 ft | 448 kts | 111° |
| 2026-05-04 13:37 | 51.07853 | 2.74143 | 34357 ft | 448 kts | 111° |
| 2026-05-04 13:38 | 51.06709 | 2.80446 | 34694 ft | 448 kts | 111° |
| 2026-05-04 13:38 | 51.05843 | 2.85210 | 34924 ft | 449 kts | 111° |
| 2026-05-04 13:38 | 51.04977 | 2.89972 | 34990 ft | 447 kts | 111° |
| 2026-05-04 13:39 | 51.03259 | 2.99411 | 35003 ft | 443 kts | 111° |
| 2026-05-04 13:39 | 51.01536 | 3.08803 | 35001 ft | 443 kts | 111° |
| 2026-05-04 13:40 | 50.99789 | 3.18239 | 34999 ft | 443 kts | 111° |
| 2026-05-04 13:40 | 50.98048 | 3.27616 | 34990 ft | 443 kts | 111° |
| 2026-05-04 13:41 | 50.96301 | 3.36981 | 34982 ft | 443 kts | 111° |
| 2026-05-04 13:41 | 50.94545 | 3.46349 | 34973 ft | 443 kts | 111° |
| 2026-05-04 13:42 | 50.91901 | 3.60385 | 34972 ft | 443 kts | 111° |
| 2026-05-04 13:42 | 50.90124 | 3.69736 | 34963 ft | 443 kts | 112° |
| 2026-05-04 13:43 | 50.88339 | 3.79090 | 34961 ft | 444 kts | 112° |
| 2026-05-04 13:43 | 50.86548 | 3.88442 | 34967 ft | 444 kts | 112° |
| 2026-05-04 13:44 | 50.84749 | 3.97780 | 34968 ft | 444 kts | 112° |
| 2026-05-04 13:44 | 50.82977 | 4.06933 | 34973 ft | 444 kts | 112° |
| 2026-05-04 13:45 | 50.81164 | 4.16268 | 34978 ft | 444 kts | 112° |
| 2026-05-04 13:45 | 50.79336 | 4.25606 | 34978 ft | 445 kts | 112° |
| 2026-05-04 13:46 | 50.77488 | 4.35009 | 34984 ft | 445 kts | 112° |
| 2026-05-04 13:46 | 50.75657 | 4.44271 | 34982 ft | 445 kts | 113° |
| 2026-05-04 13:47 | 50.73792 | 4.53661 | 34980 ft | 445 kts | 113° |
| 2026-05-04 13:47 | 50.71943 | 4.62978 | 34984 ft | 445 kts | 113° |
| 2026-05-04 13:48 | 50.70079 | 4.72290 | 34979 ft | 445 kts | 113° |
| 2026-05-04 13:48 | 50.68197 | 4.81600 | 34979 ft | 445 kts | 113° |
| 2026-05-04 13:49 | 50.66315 | 4.90902 | 34976 ft | 446 kts | 113° |
| 2026-05-04 13:49 | 50.64425 | 5.00219 | 34976 ft | 446 kts | 113° |
| 2026-05-04 13:50 | 50.62517 | 5.09512 | 34977 ft | 446 kts | 113° |
| 2026-05-04 13:50 | 50.60593 | 5.18806 | 34978 ft | 447 kts | 114° |
| 2026-05-04 13:51 | 50.58663 | 5.28102 | 34982 ft | 447 kts | 113° |
| 2026-05-04 13:51 | 50.56720 | 5.37403 | 34984 ft | 447 kts | 114° |
| 2026-05-04 13:52 | 50.53797 | 5.51342 | 34981 ft | 448 kts | 114° |
| 2026-05-04 13:53 | 50.51838 | 5.60618 | 34977 ft | 448 kts | 114° |
| 2026-05-04 13:53 | 50.49952 | 5.69974 | 34975 ft | 450 kts | 111° |
| 2026-05-04 13:54 | 50.47370 | 5.84217 | 34979 ft | 451 kts | 111° |
| 2026-05-04 13:54 | 50.45627 | 5.93686 | 34600 ft | 451 kts | 111° |
| 2026-05-04 13:55 | 50.44738 | 5.98386 | 33981 ft | 451 kts | 112° |
| 2026-05-04 13:55 | 50.42892 | 6.07991 | 31407 ft | 468 kts | 111° |
| 2026-05-04 13:55 | 50.42274 | 6.11212 | 30974 ft | 465 kts | 111° |
| 2026-05-04 13:56 | 50.41355 | 6.16040 | 30412 ft | 457 kts | 111° |
| 2026-05-04 13:56 | 50.40457 | 6.20772 | 29766 ft | 451 kts | 111° |
| 2026-05-04 13:56 | 50.38671 | 6.30085 | 28361 ft | 441 kts | 111° |
| 2026-05-04 13:57 | 50.37787 | 6.34662 | 27705 ft | 437 kts | 111° |
| 2026-05-04 13:57 | 50.36909 | 6.39199 | 27071 ft | 433 kts | 110° |
| 2026-05-04 13:58 | 50.35706 | 6.53213 | 25243 ft | 427 kts | 99° |
| 2026-05-04 13:58 | 50.35146 | 6.62211 | 24983 ft | 403 kts | 99° |
| 2026-05-04 13:58 | 50.34863 | 6.66562 | 24990 ft | 402 kts | 99° |
| 2026-05-04 13:59 | 50.34576 | 6.70927 | 24297 ft | 407 kts | 99° |
| 2026-05-04 13:59 | 50.34292 | 6.75372 | 23560 ft | 412 kts | 98° |
| 2026-05-04 13:59 | 50.33828 | 6.84175 | 22709 ft | 399 kts | 98° |
| 2026-05-04 14:00 | 50.33622 | 6.88482 | 22302 ft | 393 kts | 98° |
| 2026-05-04 14:00 | 50.33208 | 6.96895 | 21527 ft | 383 kts | 98° |
| 2026-05-04 14:00 | 50.32997 | 7.01016 | 21141 ft | 378 kts | 98° |
| 2026-05-04 14:01 | 50.32781 | 7.05104 | 20759 ft | 376 kts | 98° |
| 2026-05-04 14:01 | 50.32561 | 7.09172 | 20385 ft | 373 kts | 98° |
| 2026-05-04 14:01 | 50.32125 | 7.17196 | 19646 ft | 368 kts | 98° |
| 2026-05-04 14:02 | 50.31907 | 7.21166 | 19284 ft | 365 kts | 98° |
| 2026-05-04 14:02 | 50.31689 | 7.25118 | 18923 ft | 363 kts | 98° |
| 2026-05-04 14:02 | 50.31472 | 7.29038 | 18569 ft | 361 kts | 98° |
| 2026-05-04 14:02 | 50.31255 | 7.32927 | 18199 ft | 358 kts | 98° |
| 2026-05-04 14:03 | 50.31037 | 7.36796 | 17795 ft | 356 kts | 98° |
| 2026-05-04 14:03 | 50.30820 | 7.40641 | 17388 ft | 353 kts | 98° |
| 2026-05-04 14:03 | 50.30603 | 7.44455 | 16996 ft | 351 kts | 98° |
| 2026-05-04 14:03 | 50.30388 | 7.48238 | 16605 ft | 349 kts | 98° |
| 2026-05-04 14:04 | 50.29951 | 7.55791 | 15829 ft | 344 kts | 98° |
| 2026-05-04 14:04 | 50.29732 | 7.59514 | 15453 ft | 342 kts | 98° |
| 2026-05-04 14:04 | 50.29513 | 7.63213 | 15079 ft | 340 kts | 98° |
| 2026-05-04 14:05 | 50.29085 | 7.70535 | 14358 ft | 336 kts | 98° |
| 2026-05-04 14:05 | 50.28871 | 7.74162 | 13998 ft | 334 kts | 98° |
| 2026-05-04 14:05 | 50.28656 | 7.77769 | 13623 ft | 332 kts | 98° |
| 2026-05-04 14:06 | 50.28442 | 7.81352 | 13212 ft | 330 kts | 98° |
| 2026-05-04 14:06 | 50.28228 | 7.84910 | 12820 ft | 328 kts | 98° |
| 2026-05-04 14:06 | 50.28011 | 7.88453 | 12431 ft | 326 kts | 98° |
| 2026-05-04 14:06 | 50.27794 | 7.91969 | 12038 ft | 324 kts | 98° |
| 2026-05-04 14:07 | 50.27580 | 7.95472 | 11665 ft | 322 kts | 98° |
| 2026-05-04 14:07 | 50.27368 | 7.98947 | 11289 ft | 320 kts | 98° |
| 2026-05-04 14:07 | 50.27158 | 8.02398 | 11011 ft | 318 kts | 98° |
| 2026-05-04 14:07 | 50.26950 | 8.05842 | 10996 ft | 318 kts | 98° |
| 2026-05-04 14:08 | 50.26738 | 8.09281 | 11000 ft | 318 kts | 99° |
| 2026-05-04 14:08 | 50.26519 | 8.12768 | 10997 ft | 318 kts | 99° |
| 2026-05-04 14:08 | 50.26299 | 8.16207 | 11001 ft | 318 kts | 99° |
| 2026-05-04 14:08 | 50.26079 | 8.19652 | 10991 ft | 318 kts | 99° |
| 2026-05-04 14:09 | 50.25642 | 8.26528 | 10998 ft | 319 kts | 98° |
| 2026-05-04 14:09 | 50.25423 | 8.29974 | 10999 ft | 318 kts | 99° |
| 2026-05-04 14:10 | 50.24978 | 8.36848 | 10556 ft | 317 kts | 98° |
| 2026-05-04 14:10 | 50.24755 | 8.40264 | 10315 ft | 315 kts | 99° |
| 2026-05-04 14:10 | 50.24533 | 8.43651 | 10073 ft | 314 kts | 99° |
| 2026-05-04 14:10 | 50.24312 | 8.47007 | 9875 ft | 304 kts | 99° |
| 2026-05-04 14:11 | 50.24100 | 8.50222 | 9737 ft | 293 kts | 99° |
| 2026-05-04 14:11 | 50.23680 | 8.56492 | 9468 ft | 289 kts | 99° |
| 2026-05-04 14:11 | 50.23469 | 8.59615 | 9335 ft | 289 kts | 99° |
| 2026-05-04 14:12 | 50.23259 | 8.62734 | 9199 ft | 289 kts | 99° |
| 2026-05-04 14:12 | 50.23049 | 8.65853 | 9073 ft | 289 kts | 99° |
| 2026-05-04 14:12 | 50.22622 | 8.72084 | 8808 ft | 288 kts | 98° |
| 2026-05-04 14:13 | 50.22409 | 8.75198 | 8678 ft | 288 kts | 98° |
| 2026-05-04 14:13 | 50.22197 | 8.78310 | 8546 ft | 288 kts | 98° |
| 2026-05-04 14:13 | 50.21986 | 8.81417 | 8420 ft | 288 kts | 98° |
| 2026-05-04 14:13 | 50.21822 | 8.84535 | 8291 ft | 289 kts | 93° |
| 2026-05-04 14:14 | 50.21936 | 8.87666 | 8165 ft | 290 kts | 84° |
| 2026-05-04 14:14 | 50.23039 | 8.93780 | 7909 ft | 292 kts | 71° |
| 2026-05-04 14:14 | 50.23682 | 8.96772 | 7778 ft | 290 kts | 81° |
| 2026-05-04 14:15 | 50.22750 | 9.02512 | 7431 ft | 270 kts | 135° |
| 2026-05-04 14:15 | 50.19550 | 9.04329 | 6947 ft | 243 kts | 194° |
| 2026-05-04 14:16 | 50.16850 | 9.01561 | 6447 ft | 232 kts | 223° |
| 2026-05-04 14:16 | 50.15705 | 8.99808 | 6197 ft | 230 kts | 234° |
| 2026-05-04 14:17 | 50.14475 | 8.95245 | 5677 ft | 229 kts | 250° |
| 2026-05-04 14:17 | 50.13938 | 8.92918 | 5426 ft | 228 kts | 250° |
| 2026-05-04 14:17 | 50.12856 | 8.88307 | 5038 ft | 224 kts | 250° |
| 2026-05-04 14:18 | 50.12333 | 8.86083 | 4932 ft | 214 kts | 251° |
| 2026-05-04 14:18 | 50.11304 | 8.81713 | 4369 ft | 216 kts | 250° |
| 2026-05-04 14:19 | 50.10246 | 8.77225 | 3748 ft | 224 kts | 250° |
| 2026-05-04 14:19 | 50.09717 | 8.74990 | 3431 ft | 215 kts | 250° |
| 2026-05-04 14:19 | 50.09212 | 8.72856 | 3135 ft | 205 kts | 250° |
| 2026-05-04 14:19 | 50.08725 | 8.70797 | 2855 ft | 200 kts | 251° |
| 2026-05-04 14:20 | 50.08254 | 8.68812 | 2585 ft | 189 kts | 250° |
| 2026-05-04 14:20 | 50.07820 | 8.66980 | 2315 ft | 172 kts | 250° |
| 2026-05-04 14:20 | 50.07426 | 8.65321 | 2080 ft | 153 kts | 250° |
| 2026-05-04 14:21 | 50.06747 | 8.62463 | 1681 ft | 133 kts | 249° |
| 2026-05-04 14:21 | 50.06427 | 8.61119 | 1495 ft | 132 kts | 251° |
| 2026-05-04 14:21 | 50.06109 | 8.59781 | 1304 ft | 133 kts | 250° |
| 2026-05-04 14:21 | 50.05789 | 8.58433 | 1106 ft | 132 kts | 249° |
| 2026-05-04 14:22 | 50.05454 | 8.57089 | 899 ft | 131 kts | 249° |
| 2026-05-04 14:22 | 50.05145 | 8.55732 | 722 ft | 135 kts | 249° |
| 2026-05-04 14:22 | 50.04819 | 8.54384 | 541 ft | 136 kts | 248° |
| 2026-05-04 14:22 | 50.04501 | 8.53027 | 371 ft | 132 kts | 248° |
| 2026-05-04 14:23 | 50.04060 | 8.51201 | 328 ft | 37 kts | 248° |
| 2026-05-04 14:23 | 50.03932 | 8.50952 | 327 ft | 27 kts | 221° |
| 2026-05-04 14:23 | 50.03808 | 8.50845 | 332 ft | 15 kts | 167° |
| 2026-05-04 14:24 | 50.03789 | 8.50954 | 335 ft | 10 kts | 76° |
| 2026-05-04 14:24 | 50.03812 | 8.51049 | 333 ft | 9 kts | 69° |
| 2026-05-04 14:24 | 50.03829 | 8.51129 | 334 ft | 7 kts | 72° |
| 2026-05-04 14:24 | 50.03851 | 8.51219 | 336 ft | 13 kts | 70° |
| 2026-05-04 14:25 | 50.03889 | 8.51377 | 334 ft | 16 kts | 69° |
| 2026-05-04 14:25 | 50.03957 | 8.51662 | 333 ft | 12 kts | 70° |
| 2026-05-04 14:25 | 50.03984 | 8.51781 | 333 ft | 11 kts | 70° |
| 2026-05-04 14:26 | 50.04015 | 8.51899 | 334 ft | 15 kts | 68° |
| 2026-05-04 14:26 | 50.04060 | 8.52089 | 337 ft | 20 kts | 70° |
| 2026-05-04 14:26 | 50.04090 | 8.52217 | 347 ft | 19 kts | 70° |
| 2026-05-04 14:26 | 50.04132 | 8.52392 | 349 ft | 16 kts | 70° |
| 2026-05-04 14:27 | 50.04169 | 8.52547 | 354 ft | 16 kts | 69° |
| 2026-05-04 14:27 | 50.04209 | 8.52712 | 351 ft | 18 kts | 69° |
| 2026-05-04 14:27 | 50.04260 | 8.52925 | 354 ft | 23 kts | 69° |
| 2026-05-04 14:27 | 50.04321 | 8.53185 | 360 ft | 27 kts | 70° |
| 2026-05-04 14:28 | 50.04385 | 8.53451 | 373 ft | 25 kts | 71° |
| 2026-05-04 14:28 | 50.04408 | 8.53717 | 375 ft | 26 kts | 84° |
| 2026-05-04 14:28 | 50.04428 | 8.54003 | 375 ft | 26 kts | 84° |
| 2026-05-04 14:28 | 50.04446 | 8.54281 | 375 ft | 25 kts | 84° |
| 2026-05-04 14:29 | 50.04342 | 8.54747 | 359 ft | 17 kts | 144° |
| 2026-05-04 14:29 | 50.04151 | 8.54863 | 357 ft | 17 kts | 160° |
| 2026-05-04 14:30 | 50.04080 | 8.54904 | 351 ft | 5 kts | 159° |
| 2026-05-04 14:30 | 50.04075 | 8.54907 | 351 ft | 1 kts | 159° |
| 2026-05-04 14:30 | 50.04013 | 8.54973 | 356 ft | 10 kts | 102° |
| 2026-05-04 14:31 | 50.04039 | 8.55106 | 358 ft | 16 kts | 70° |
| 2026-05-04 14:31 | 50.04105 | 8.55379 | 359 ft | 13 kts | 70° |
| 2026-05-04 14:32 | 50.04163 | 8.55619 | 355 ft | 11 kts | 69° |
| 2026-05-04 14:32 | 50.04178 | 8.55691 | 352 ft | 3 kts | 83° |
| 2026-05-04 14:32 | 50.04170 | 8.55708 | 357 ft | 4 kts | 134° |
| 2026-05-04 14:32 | 50.04128 | 8.55735 | 355 ft | 6 kts | 159° |
| 2026-05-04 14:33 | 50.04102 | 8.55750 | 356 ft | 0 kts | 159° |